createdAt,value
2024-04-25T00:00:06.622Z,97253.10
2024-04-25T00:05:11.007Z,97248.63
2024-04-25T00:10:15.873Z,97250.83
2024-04-25T00:15:20.271Z,97252.94
2024-04-25T00:20:24.833Z,97255.27
2024-04-25T00:25:29.549Z,97254.80
2024-04-25T00:30:34.178Z,97260.75
2024-04-25T00:35:38.639Z,97256.39
2024-04-25T00:40:43.278Z,97256.38
2024-04-25T00:45:47.311Z,97258.34
2024-04-25T00:50:52.790Z,97255.77
2024-04-25T00:55:58.208Z,97259.59
2024-04-25T01:01:03.431Z,97254.30
2024-04-25T01:06:08.235Z,97258.96
2024-04-25T01:11:12.770Z,97262.10
2024-04-25T01:16:17.283Z,97260.92
2024-04-25T01:21:21.985Z,97261.33
2024-04-25T01:26:26.633Z,97265.31
2024-04-25T01:31:31.699Z,97261.96
2024-04-25T01:36:38.391Z,97266.11
2024-04-25T01:41:42.941Z,97266.49
2024-04-25T01:46:47.246Z,97269.77
2024-04-25T01:51:51.844Z,97269.77
2024-04-25T01:56:56.430Z,97268.52
2024-04-25T02:02:00.970Z,97271.04
2024-04-25T02:07:11.468Z,97274.71
2024-04-25T02:12:19.104Z,97275.48
2024-04-25T02:17:23.735Z,97271.52
2024-04-25T02:22:46.159Z,97269.71
2024-04-25T02:27:51.221Z,97272.38
2024-04-25T02:39:27.910Z,97268.16
2024-04-25T02:44:32.426Z,97274.33
2024-04-25T02:49:37.123Z,97274.34
2024-04-25T02:54:41.792Z,97275.03
2024-04-25T02:59:46.366Z,97284.64
2024-04-25T03:04:50.984Z,97285.42
2024-04-25T03:09:55.563Z,97285.82
2024-04-25T03:15:00.250Z,97284.27
2024-04-25T03:20:05.128Z,97287.73
2024-04-25T03:25:10.037Z,97286.79
2024-04-25T03:30:14.347Z,97289.67
2024-04-25T03:35:19.288Z,97295.85
2024-04-25T03:40:23.914Z,97298.19
2024-04-25T03:45:30.890Z,97298.98
2024-04-25T03:50:35.308Z,97305.80
2024-04-25T03:55:43.635Z,97309.93
2024-04-25T04:00:48.524Z,97311.02
2024-04-25T04:05:53.201Z,97313.67
2024-04-25T04:10:57.732Z,97311.17
2024-04-25T04:16:02.507Z,97320.57
2024-04-25T04:21:08.614Z,97326.33
2024-04-25T04:26:14.453Z,97324.31
2024-04-25T04:31:19.644Z,97328.67
2024-04-25T04:36:24.534Z,97344.04
2024-04-25T04:41:29.170Z,97347.42
2024-04-25T04:46:34.271Z,97341.27
2024-04-25T04:51:41.846Z,97336.41
2024-04-25T04:56:47.177Z,97338.27
2024-04-25T05:02:01.520Z,97338.95
2024-04-25T05:07:06.156Z,97336.38
2024-04-25T05:12:10.962Z,97347.05
2024-04-25T05:17:16.077Z,97347.91
2024-04-25T05:22:20.579Z,97353.06
2024-04-25T05:27:25.354Z,97348.84
2024-04-25T05:32:30.299Z,97351.66
2024-04-25T05:37:35.177Z,97346.50
2024-04-25T05:42:39.655Z,97353.45
2024-04-25T05:47:44.782Z,97360.05
2024-04-25T05:52:49.596Z,97365.98
2024-04-25T05:57:54.167Z,97368.73
2024-04-25T06:03:02.531Z,97373.74
2024-04-25T06:08:09.102Z,97376.88
2024-04-25T06:13:14.033Z,97381.72
2024-04-25T06:18:18.739Z,97385.08
2024-04-25T06:23:23.661Z,97382.27
2024-04-25T06:28:28.729Z,97382.89
2024-04-25T06:33:33.390Z,97393.98
2024-04-25T06:38:38.405Z,97399.92
2024-04-25T06:43:43.146Z,97401.86
2024-04-25T06:48:48.691Z,97404.98
2024-04-25T06:53:55.299Z,97409.11
2024-04-25T06:58:59.993Z,97410.59
2024-04-25T07:04:04.607Z,97407.55
2024-04-25T07:09:09.243Z,97411.52
2024-04-25T07:14:13.979Z,97419.54
2024-04-25T07:19:19.198Z,97422.71
2024-04-25T07:24:23.664Z,97421.02
2024-04-25T07:29:28.509Z,97420.27
2024-04-25T07:34:33.282Z,97414.28
2024-04-25T07:39:38.207Z,97420.86
2024-04-25T07:44:43.140Z,97423.45
2024-04-25T07:49:47.903Z,97420.52
2024-04-25T07:54:52.235Z,97424.86
2024-04-25T07:59:58.543Z,97425.90
2024-04-25T08:05:03.211Z,97429.77
2024-04-25T08:10:08.494Z,97423.77
2024-04-25T08:15:13.259Z,97426.63
2024-04-25T08:20:18.214Z,97426.73
2024-04-25T08:25:22.831Z,97431.55
2024-04-25T08:30:27.292Z,97435.09
2024-04-25T08:35:31.542Z,97437.36
2024-04-25T08:40:36.161Z,97439.79
2024-04-25T08:45:40.849Z,97447.30
2024-04-25T08:50:46.170Z,97449.92
2024-04-25T08:55:51.482Z,97450.35
2024-04-25T09:00:58.419Z,97445.63
2024-04-25T09:06:03.194Z,97451.28
2024-04-25T09:11:07.930Z,97449.09
2024-04-25T09:16:12.588Z,97441.88
2024-04-25T09:21:17.762Z,97436.38
2024-04-25T09:26:23.254Z,97434.55
2024-04-25T09:31:27.819Z,97428.98
2024-04-25T09:36:33.041Z,97432.33
2024-04-25T09:41:38.280Z,97430.83
2024-04-25T09:46:46.760Z,97434.48
2024-04-25T09:51:57.795Z,97434.04
2024-04-25T09:57:03.970Z,97434.44
2024-04-25T10:02:15.637Z,97434.38
2024-04-25T10:07:20.879Z,97426.11
2024-04-25T10:12:25.873Z,97427.55
2024-04-25T10:17:31.541Z,97425.30
2024-04-25T10:22:39.370Z,97427.84
2024-04-25T10:27:56.245Z,97428.61
2024-04-25T10:33:01.277Z,97425.39
2024-04-25T10:38:06.283Z,97420.72
2024-04-25T10:43:11.235Z,97425.02
2024-04-25T10:48:15.909Z,97425.14
2024-04-25T10:53:23.325Z,97426.63
2024-04-25T10:58:28.208Z,97428.73
2024-04-25T11:03:32.944Z,97432.09
2024-04-25T11:08:37.392Z,97434.53
2024-04-25T11:13:42.722Z,97433.69
2024-04-25T11:18:50.169Z,97431.04
2024-04-25T11:23:58.485Z,97428.61
2024-04-25T11:29:03.244Z,97431.95
2024-04-25T11:34:07.801Z,97432.03
2024-04-25T11:39:18.388Z,97433.29
2024-04-25T11:44:23.314Z,97433.99
2024-04-25T11:49:27.965Z,97436.82
2024-04-25T11:54:32.572Z,97434.86
2024-04-25T11:59:37.271Z,97436.98
2024-04-25T12:04:42.395Z,97431.10
2024-04-25T12:09:47.360Z,97432.91
2024-04-25T12:14:52.175Z,97438.85
2024-04-25T12:19:57.220Z,97429.86
2024-04-25T12:25:02.303Z,97430.33
2024-04-25T12:30:07.839Z,97422.59
2024-04-25T12:35:13.288Z,97423.60
2024-04-25T12:40:17.924Z,97424.85
2024-04-25T12:45:22.369Z,97426.88
2024-04-25T12:50:26.893Z,97432.33
2024-04-25T12:55:31.465Z,97428.83
2024-04-25T13:00:36.316Z,97424.46
2024-04-25T13:05:41.394Z,97425.33
2024-04-25T13:10:47.671Z,97417.11
2024-04-25T13:15:52.410Z,97416.45
2024-04-25T13:20:59.252Z,97408.10
2024-04-25T13:26:05.844Z,97407.09
2024-04-25T13:31:10.535Z,97414.41
2024-04-25T13:36:15.376Z,97406.45
2024-04-25T13:41:19.933Z,97405.76
2024-04-25T13:46:24.551Z,97404.84
2024-04-25T13:51:28.991Z,97404.58
2024-04-25T13:56:33.647Z,97407.41
2024-04-25T14:01:38.636Z,97412.98
2024-04-25T14:06:45.423Z,97413.90
2024-04-25T14:11:50.150Z,97413.74
2024-04-25T14:16:54.752Z,97416.46
2024-04-25T14:21:59.516Z,97418.02
2024-04-25T14:27:22.066Z,97420.21
2024-04-25T14:32:27.344Z,97412.55
2024-04-25T14:37:32.033Z,97406.54
2024-04-25T14:42:36.761Z,97405.59
2024-04-25T14:47:41.658Z,97406.25
2024-04-25T14:52:46.125Z,97407.23
2024-04-25T14:57:50.986Z,97407.71
2024-04-25T15:02:55.352Z,97403.71
2024-04-25T15:07:59.848Z,97406.45
2024-04-25T15:13:04.428Z,97403.71
2024-04-25T15:18:09.598Z,97403.23
2024-04-25T15:23:14.682Z,97405.57
2024-04-25T15:28:19.842Z,97404.78
2024-04-25T15:33:24.746Z,97407.27
2024-04-25T15:38:30.297Z,97405.80
2024-04-25T15:43:36.970Z,97419.39
2024-04-25T15:48:45.426Z,97424.70
2024-04-25T15:53:50.320Z,97428.38
2024-04-25T15:58:55.918Z,97431.73
2024-04-25T16:04:00.628Z,97435.35
2024-04-25T16:09:05.568Z,97438.25
2024-04-25T16:14:10.454Z,97438.17
2024-04-25T16:19:14.991Z,97444.52
2024-04-25T16:24:19.644Z,97439.36
2024-04-25T16:29:25.451Z,97442.64
2024-04-25T16:34:29.739Z,97446.63
2024-04-25T16:39:34.482Z,97448.50
2024-04-25T16:44:39.705Z,97455.92
2024-04-25T16:49:44.711Z,97462.80
2024-04-25T16:54:49.769Z,97465.47
2024-04-25T16:59:54.620Z,97470.63
2024-04-25T17:04:59.311Z,97476.96
2024-04-25T17:10:04.564Z,97481.02
2024-04-25T17:15:10.428Z,97487.28
2024-04-25T17:20:15.255Z,97491.27
2024-04-25T17:25:20.003Z,97498.55
2024-04-25T17:30:24.506Z,97505.04
2024-04-25T17:35:29.443Z,97506.68
2024-04-25T17:40:34.031Z,97513.55
2024-04-25T17:45:38.888Z,97519.33
2024-04-25T17:50:43.722Z,97526.30
2024-04-25T17:55:48.193Z,97536.05
2024-04-25T18:00:53.659Z,97546.84
2024-04-25T18:05:58.064Z,97558.02
2024-04-25T18:11:02.786Z,97560.69
2024-04-25T18:16:08.136Z,97558.96
2024-04-25T18:21:12.614Z,97564.28
2024-04-25T18:26:17.156Z,97572.02
2024-04-25T18:31:24.332Z,97577.16
2024-04-25T18:36:29.233Z,97580.91
2024-04-25T18:41:35.229Z,97583.27
2024-04-25T18:46:39.751Z,97592.41
2024-04-25T18:51:44.462Z,97597.52
2024-04-25T18:56:50.103Z,97604.14
2024-04-25T19:01:54.632Z,97609.14
2024-04-25T19:07:02.911Z,97616.02
2024-04-25T19:12:07.999Z,97620.79
2024-04-25T19:17:12.581Z,97627.66
2024-04-25T19:22:21.115Z,97630.47
2024-04-25T19:27:26.816Z,97629.92
2024-04-25T19:32:32.360Z,97637.27
2024-04-25T19:37:37.072Z,97638.67
2024-04-25T19:42:42.241Z,97645.79
2024-04-25T19:47:46.851Z,97642.35
2024-04-25T19:52:51.874Z,97638.99
2024-04-25T19:57:56.119Z,97632.75
2024-04-25T20:03:00.866Z,97628.45
2024-04-25T20:08:06.283Z,97635.02
2024-04-25T20:13:11.114Z,97636.73
2024-04-25T20:18:34.111Z,97639.39
2024-04-25T20:23:39.221Z,97635.79
2024-04-25T20:28:43.792Z,97639.61
2024-04-25T20:33:49.200Z,97640.71
2024-04-25T20:38:54.831Z,97642.42
2024-04-25T20:43:59.749Z,97650.09
2024-04-25T20:49:04.799Z,97655.17
2024-04-25T20:54:09.704Z,97661.14
2024-04-25T21:04:55.552Z,97658.60
2024-04-25T21:10:00.722Z,97666.52
2024-04-25T21:15:05.862Z,97663.56
2024-04-25T21:20:11.013Z,97671.24
2024-04-25T21:25:18.030Z,97672.96
2024-04-25T21:30:22.632Z,97688.98
2024-04-25T21:35:27.076Z,97691.16
2024-04-25T21:40:32.591Z,97699.38
2024-04-25T21:45:37.862Z,97698.98
2024-04-25T21:50:42.853Z,97699.30
2024-04-25T21:55:51.174Z,97696.59
2024-04-25T22:00:55.832Z,97686.09
2024-04-25T22:06:00.422Z,97685.40
2024-04-25T22:11:05.120Z,97687.45
2024-04-25T22:16:10.165Z,97684.77
2024-04-25T22:21:14.806Z,97684.08
2024-04-25T22:26:19.507Z,97690.17
2024-04-25T22:31:24.484Z,97681.27
2024-04-25T22:36:29.304Z,97684.70
2024-04-25T22:41:34.605Z,97685.42
2024-04-25T22:46:39.515Z,97685.50
2024-04-25T22:51:44.302Z,97684.46
2024-04-25T22:56:48.823Z,97687.27
2024-04-25T23:01:53.397Z,97686.81
2024-04-25T23:06:58.167Z,97685.34
2024-04-25T23:12:02.614Z,97688.30
2024-04-25T23:17:08.525Z,97686.11
2024-04-25T23:22:13.415Z,97689.41
2024-04-25T23:27:18.134Z,97689.87
2024-04-25T23:32:22.925Z,97689.09
2024-04-25T23:37:27.832Z,97686.58
2024-04-25T23:42:33.063Z,97685.17
2024-04-25T23:47:37.870Z,97684.41
2024-04-25T23:52:42.534Z,97683.79
2024-04-25T23:57:46.964Z,97684.35
